Terminal Aerodrome Forecast
Issued by NWS

Home | Current Version | Previous Version | Graphics & Text | Print | Product List | Glossary On
Versions: 1 2 3 4 5 6 7 8 9 10 11 12 13 14 15
000
FTUS43 KTOP 230520
TAFMHK
TAF
KMHK 230520Z 2306/2406 21008KT P6SM SCT200
     FM230800 02010KT P6SM VCSH BKN110
     FM231200 02007KT P6SM BKN050
     FM231600 01010KT P6SM SCT100=

USA.gov is the U.S. government's official web portal to all federal, state and local government web resources and services.